Track Пята Владислав

Time Latitude Longitude Accuracy (66% radius in meters) Altitude (meters) Speed (km/hour) Bearing (degrees) Battery (%) GPS flag
12:12:40 53.016661 36.146129 3.5 242.30000305176 1.4299999475479 225.22521972656 81 0 delete
12:12:29 53.016661 36.146129 3.5 242.30000305176 1.4299999475479 225.22521972656 81 0 delete
12:12:18 53.016661 36.146129 3.5 242.30000305176 1.4299999475479 225.22521972656 81 0 delete
12:12:08 53.016661 36.146129 3.5 242.30000305176 1.4299999475479 225.22521972656 81 0 delete
12:11:57 53.016661 36.146129 3.5 242.30000305176 1.4299999475479 225.22521972656 81 0 delete
12:11:46 53.016661 36.146129 3.5 242.30000305176 1.4299999475479 225.22521972656 81 0 delete
11:11:34 53.016671 36.145994 30 241.60000610352 0 0 81 1 delete
11:11:23 53.016631 36.146049 8.5 242.60000610352 0.53999996185303 331.11145019531 81 1 delete
11:11:11 53.016649 36.146109 3.5 242.19999694824 1.6200000047684 223.73657226562 81 1 delete
11:11:10 53.016661 36.146129 3.5 242.30000305176 1.4299999475479 225.22521972656 81 1 delete
11:11:03 53.016712 36.146259 3.5 242.80000305176 1.6699999570847 231.72912597656 81 1 delete
11:11:01 53.016732 36.146299 4 242.5 1.5299999713898 228.88366699219 81 1 delete
11:10:55 53.016780 36.146379 4 243.60000610352 1.4099999666214 198.66577148438 81 1 delete
11:10:51 53.016839 36.146418 3.5 243.30000305176 1.5299999713898 215.05737304688 81 1 delete
11:10:49 53.016861 36.146453 3.5 243.39999389648 1.6899999380112 215.42541503906 81 1 delete
11:10:40 53.016953 36.146569 2 243.39999389648 0.079999998211861 16.430053710938 81 1 delete
11:10:37 53.016955 36.146561 2.5 243.39999389648 1.3299999237061 185.07568359375 81 1 delete
11:10:31 53.017045 36.146591 3 243.60000610352 1.2999999523163 150.61706542969 81 1 delete
11:10:29 53.017082 36.146586 2 243.5 1.0699999332428 130.58349609375 81 1 delete
11:10:19 53.017116 36.146575 2.5 242.89999389648 0.079999998211861 90.06591796875 81 1 delete
11:10:17 53.017140 36.146554 2.5 241.89999389648 0.75999999046326 162.65808105469 81 1 delete
11:10:08 53.017169 36.146564 3 241 0 0 81 1 delete
11:10:00 53.017229 36.146596 3.5 239.69999694824 1.0199999809265 190.60729980469 81 1 delete
11:09:57 53.017252 36.146627 3 238.10000610352 0.93999999761581 211.1572265625 81 1 delete
11:09:47 53.017269 36.146651 2 240.19999694824 0 0 81 1 delete
11:09:36 53.017269 36.146651 1.5 240.19999694824 0 0 81 1 delete
11:09:25 53.017269 36.146651 1.5 240.19999694824 0 0 81 1 delete
11:09:13 53.017269 36.146651 1.5 240.19999694824 0 0 81 1 delete
11:09:02 53.017269 36.146651 1.5 240.19999694824 0 0 81 1 delete
11:08:51 53.017269 36.146651 1 240.10000610352 0.03999999910593 20.615844726562 81 1 delete
11:08:40 53.017277 36.146658 1.5 239.60000610352 0 0 81 1 delete
11:08:29 53.017277 36.146658 1.5 239.60000610352 0 0 81 1 delete
11:08:24 53.017311 36.146670 1.5 240.80000305176 1.0599999427795 225.58776855469 81 1 delete
11:08:18 53.017359 36.146772 1.5 239.69999694824 0.93999999761581 216.77124023438 81 1 delete
11:08:17 53.017376 36.146773 1.5 238.30000305176 1.0499999523163 203.88977050781 81 1 delete
11:08:07 53.017406 36.146815 1.5 236 0 0 81 1 delete
11:07:56 53.017430 36.146808 1.5 238.10000610352 0 0 81 1 delete
11:07:46 53.017423 36.146802 1.5 239.80000305176 1.1200000047684 219.84741210938 81 1 delete
11:07:42 53.017470 36.146844 2 240.19999694824 1.1200000047684 214.54650878906 81 1 delete
11:07:36 53.017549 36.146926 1.5 238.89999389648 0.85999995470047 211.728515625 81 1 delete
11:07:35 53.017558 36.146935 1.5 238.30000305176 0.75 208.93798828125 81 1 delete
11:07:25 53.017611 36.147012 1.5 235.80000305176 0.91999995708466 216.57348632812 81 1 delete
11:07:24 53.017626 36.147030 1.5 236.80000305176 0.91999995708466 215.57922363281 81 1 delete
11:07:16 53.017692 36.147136 2 236.60000610352 1.0099999904633 217.65014648438 81 1 delete
11:07:13 53.017727 36.147161 1.5 236.89999389648 0.84999996423721 179.82421875 81 1 delete
11:07:07 53.017787 36.147168 2 236.30000305176 1.039999961853 180.06042480469 81 1 delete
11:07:02 53.017855 36.147205 1.5 236.60000610352 0.95999997854233 205.7080078125 81 1 delete
11:06:59 53.017871 36.147224 2 237.30000305176 0.9899999499321 208.36669921875 81 1 delete
11:06:52 53.017933 36.147279 2 238.39999389648 0.8299999833107 210.44860839844 81 1 delete
11:06:47 53.017956 36.147323 2 236.5 0.9099999666214 206.49353027344 81 1 delete